createdAt,value
2018-09-18T00:00:53.926Z,93.35
2018-09-18T00:01:53.943Z,92.86
2018-09-18T00:02:53.963Z,93.15
2018-09-18T00:03:53.989Z,93.06
2018-09-18T00:04:54.016Z,93.73
2018-09-18T00:05:54.038Z,94.02
2018-09-18T00:06:54.061Z,93.82
2018-09-18T00:07:54.085Z,93.73
2018-09-18T00:08:54.103Z,94.54
2018-09-18T00:09:54.130Z,93.68
2018-09-18T00:10:54.148Z,95.03
2018-09-18T00:11:54.172Z,94.74
2018-09-18T00:12:54.197Z,94.54
2018-09-18T00:13:54.223Z,94.64
2018-09-18T00:14:54.246Z,93.68
2018-09-18T00:15:54.266Z,93.78
2018-09-18T00:16:54.290Z,93.88
2018-09-18T00:17:54.315Z,93.78
2018-09-18T00:18:54.342Z,94.54
2018-09-18T00:19:54.357Z,93.97
2018-09-18T00:20:54.380Z,93.97
2018-09-18T00:21:54.405Z,94.64
2018-09-18T00:22:54.427Z,94.93
2018-09-18T00:23:54.455Z,94.84
2018-09-18T00:24:54.472Z,94.74
2018-09-18T00:25:54.491Z,94.54
2018-09-18T00:26:54.525Z,93.68
2018-09-18T00:27:54.545Z,94.45
2018-09-18T00:28:54.565Z,95.03
2018-09-18T00:29:54.590Z,94.84
2018-09-18T00:30:54.611Z,94.54
2018-09-18T00:31:54.634Z,93.78
2018-09-18T00:32:54.659Z,94.35
2018-09-18T00:33:54.681Z,94.93
2018-09-18T00:34:54.708Z,95.51
2018-09-18T00:35:54.719Z,95.03
2018-09-18T00:36:54.748Z,94.74
2018-09-18T00:37:54.774Z,94.54
2018-09-18T00:38:54.791Z,93.78
2018-09-18T00:39:54.818Z,93.49
2018-09-18T00:40:54.840Z,93.68
2018-09-18T00:41:54.867Z,93.88
2018-09-18T00:42:54.884Z,94.74
2018-09-18T00:43:54.913Z,94.45
2018-09-18T00:44:54.936Z,94.07
2018-09-18T00:45:54.952Z,93.40
2018-09-18T00:46:54.980Z,93.78
2018-09-18T00:47:54.995Z,93.68
2018-09-18T00:48:55.025Z,94.45
2018-09-18T00:49:55.041Z,93.59
2018-09-18T00:50:55.069Z,93.78
2018-09-18T00:51:55.089Z,93.68
2018-09-18T00:52:55.115Z,95.31
2018-09-18T00:53:55.133Z,95.51
2018-09-18T00:54:55.159Z,95.31
2018-09-18T00:55:55.181Z,95.60
2018-09-18T00:56:55.203Z,95.65
2018-09-18T00:57:55.227Z,96.42
2018-09-18T00:58:55.246Z,96.37
2018-09-18T00:59:55.272Z,96.61
2018-09-18T01:00:55.293Z,95.46
2018-09-18T01:01:55.316Z,94.59
2018-09-18T01:02:55.344Z,95.41
2018-09-18T01:03:55.369Z,95.41
2018-09-18T01:04:55.386Z,95.46
2018-09-18T01:05:55.404Z,95.41
2018-09-18T01:06:55.438Z,95.41
2018-09-18T01:07:55.454Z,94.50
2018-09-18T01:08:55.473Z,95.65
2018-09-18T01:09:55.497Z,95.26
2018-09-18T01:10:55.519Z,95.51
2018-09-18T01:11:55.543Z,93.88
2018-09-18T01:12:55.567Z,94.84
2018-09-18T01:13:55.590Z,94.93
2018-09-18T01:14:55.616Z,95.70
2018-09-18T01:15:55.629Z,94.64
2018-09-18T01:16:55.657Z,95.41
2018-09-18T01:17:55.680Z,94.45
2018-09-18T01:18:55.707Z,94.69
2018-09-18T01:19:55.720Z,93.68
2018-09-18T01:20:55.746Z,93.35
2018-09-18T01:21:55.774Z,93.49
2018-09-18T01:22:55.793Z,93.78
2018-09-18T01:23:55.823Z,94.64
2018-09-18T01:24:55.838Z,93.78
2018-09-18T01:25:55.862Z,94.45
2018-09-18T01:26:55.884Z,93.49
2018-09-18T01:27:55.905Z,94.54
2018-09-18T01:28:55.931Z,93.63
2018-09-18T01:29:55.952Z,93.49
2018-09-18T01:30:55.973Z,93.54
2018-09-18T01:31:55.994Z,93.30
2018-09-18T01:32:56.015Z,93.73
2018-09-18T01:33:56.045Z,93.63
2018-09-18T01:34:56.065Z,93.63
2018-09-18T01:35:56.084Z,93.83
2018-09-18T01:36:56.108Z,93.63
2018-09-18T01:37:56.134Z,93.63
2018-09-18T01:38:56.154Z,93.54
2018-09-18T01:39:56.175Z,93.73
2018-09-18T01:40:56.203Z,93.93
2018-09-18T01:41:56.223Z,93.78
2018-09-18T01:42:56.250Z,94.02
2018-09-18T01:43:56.269Z,93.40
2018-09-18T01:44:56.292Z,93.30
2018-09-18T01:45:56.310Z,92.68
2018-09-18T01:46:56.336Z,93.21
2018-09-18T01:47:56.358Z,92.72
2018-09-18T01:48:56.379Z,93.26
2018-09-18T01:49:56.399Z,93.44
2018-09-18T01:50:56.424Z,93.26
2018-09-18T01:51:56.454Z,94.02
2018-09-18T01:52:56.467Z,93.35
2018-09-18T01:53:56.489Z,93.68
2018-09-18T01:54:56.516Z,93.44
2018-09-18T01:55:56.535Z,93.63
2018-09-18T01:56:56.560Z,93.44
2018-09-18T01:57:56.580Z,93.54
2018-09-18T01:58:56.604Z,94.12
2018-09-18T01:59:56.637Z,93.83
2018-09-18T02:00:56.646Z,93.54
2018-09-18T02:01:56.670Z,93.63
2018-09-18T02:02:56.697Z,93.63
2018-09-18T02:03:56.720Z,93.54
2018-09-18T02:04:56.740Z,93.63
2018-09-18T02:05:56.769Z,94.02
2018-09-18T02:06:56.791Z,94.02
2018-09-18T02:07:56.808Z,93.73
2018-09-18T02:08:56.832Z,93.83
2018-09-18T02:09:56.849Z,93.93
2018-09-18T02:10:56.877Z,94.12
2018-09-18T02:11:56.900Z,94.31
2018-09-18T02:12:56.918Z,94.02
2018-09-18T02:13:56.939Z,93.83
2018-09-18T02:14:56.963Z,93.63
2018-09-18T02:15:56.983Z,93.73
2018-09-18T02:16:57.010Z,93.83
2018-09-18T02:17:57.032Z,94.02
2018-09-18T02:18:57.055Z,93.93
2018-09-18T02:19:57.073Z,93.63
2018-09-18T02:20:57.099Z,93.63
2018-09-18T02:21:57.120Z,94.59
2018-09-18T02:22:57.143Z,96.32
2018-09-18T02:23:57.169Z,96.13
2018-09-18T02:24:57.195Z,96.80
2018-09-18T02:25:57.212Z,96.80
2018-09-18T02:26:57.236Z,97.28
2018-09-18T02:27:57.256Z,97.56
2018-09-18T02:28:57.281Z,96.99
2018-09-18T02:29:57.300Z,97.47
2018-09-18T02:30:57.323Z,97.95
2018-09-18T02:31:57.341Z,97.61
2018-09-18T02:32:57.370Z,97.95
2018-09-18T02:33:57.389Z,97.95
2018-09-18T02:34:57.410Z,97.80
2018-09-18T02:35:57.433Z,98.00
2018-09-18T02:36:57.459Z,97.52
2018-09-18T02:37:57.480Z,97.85
2018-09-18T02:38:57.494Z,98.28
2018-09-18T02:39:57.532Z,97.85
2018-09-18T02:40:57.551Z,97.61
2018-09-18T02:41:57.572Z,97.04
2018-09-18T02:42:57.586Z,96.94
2018-09-18T02:43:57.623Z,97.66
2018-09-18T02:44:57.645Z,97.80
2018-09-18T02:45:57.656Z,98.00
2018-09-18T02:46:57.677Z,97.66
2018-09-18T02:47:57.703Z,98.38
2018-09-18T02:48:57.739Z,98.67
2018-09-18T02:49:57.746Z,98.47
2018-09-18T02:50:57.766Z,98.19
2018-09-18T02:51:57.794Z,98.57
2018-09-18T02:52:57.809Z,98.28
2018-09-18T02:53:57.835Z,97.90
2018-09-18T02:54:57.862Z,98.67
2018-09-18T02:55:57.884Z,98.00
2018-09-18T02:56:57.905Z,98.47
2018-09-18T02:57:57.925Z,98.47
2018-09-18T02:58:57.946Z,99.05
2018-09-18T02:59:57.968Z,98.47
2018-09-18T03:00:57.987Z,98.28
2018-09-18T03:01:58.016Z,98.47
2018-09-18T03:02:58.037Z,98.38
2018-09-18T03:03:58.063Z,98.38
2018-09-18T03:04:58.079Z,98.86
2018-09-18T03:05:58.101Z,98.38
2018-09-18T03:06:58.128Z,98.28
2018-09-18T03:07:58.150Z,98.67
2018-09-18T03:08:58.168Z,99.72
2018-09-18T03:09:58.188Z,99.43
2018-09-18T03:10:58.215Z,99.72
2018-09-18T03:11:58.235Z,98.57
2018-09-18T03:12:58.267Z,98.47
2018-09-18T03:13:58.285Z,98.57
2018-09-18T03:14:58.304Z,97.71
2018-09-18T03:15:58.327Z,98.47
2018-09-18T03:16:58.345Z,97.80
2018-09-18T03:17:58.370Z,97.52
2018-09-18T03:18:58.395Z,98.47
2018-09-18T03:19:58.412Z,98.86
2018-09-18T03:20:58.506Z,98.47
2018-09-18T03:21:58.455Z,98.67
2018-09-18T03:22:58.482Z,98.86
2018-09-18T03:23:58.507Z,99.53
2018-09-18T03:24:58.525Z,99.15
2018-09-18T03:25:58.544Z,98.47
2018-09-18T03:26:58.568Z,99.34
2018-09-18T03:27:58.590Z,98.67
2018-09-18T03:28:58.609Z,98.96
2018-09-18T03:29:58.637Z,99.53
2018-09-18T03:30:58.660Z,99.99
2018-09-18T03:31:58.677Z,99.99
2018-09-18T03:32:58.699Z,99.82
2018-09-18T03:33:58.720Z,99.99
2018-09-18T03:34:58.817Z,99.99
2018-09-18T03:35:58.768Z,99.99
2018-09-18T03:36:58.796Z,99.99
2018-09-18T03:37:58.811Z,99.99
2018-09-18T03:38:58.828Z,99.99
2018-09-18T03:39:58.858Z,99.99
2018-09-18T03:40:58.876Z,99.99
2018-09-18T03:41:58.900Z,99.87
2018-09-18T03:42:58.922Z,99.99
2018-09-18T03:43:58.946Z,99.99
2018-09-18T03:44:58.970Z,99.99
2018-09-18T03:45:58.992Z,99.99
2018-09-18T03:46:59.015Z,99.91
2018-09-18T03:47:59.028Z,99.99
2018-09-18T03:48:59.054Z,99.99
2018-09-18T03:49:59.076Z,99.99
2018-09-18T03:50:59.099Z,99.99
2018-09-18T03:51:59.123Z,99.99
2018-09-18T03:52:59.140Z,99.67
2018-09-18T03:53:59.160Z,99.63
2018-09-18T03:54:59.183Z,99.87
2018-09-18T03:55:59.212Z,99.99
2018-09-18T03:56:59.229Z,99.99
2018-09-18T03:57:59.258Z,99.99
2018-09-18T03:58:59.278Z,99.99
2018-09-18T03:59:59.296Z,99.99
2018-09-18T04:00:59.318Z,99.99
2018-09-18T04:01:59.347Z,99.99
2018-09-18T04:02:59.374Z,99.99
2018-09-18T04:03:59.382Z,99.99
2018-09-18T04:04:59.405Z,99.99
2018-09-18T04:05:59.427Z,99.99
2018-09-18T04:06:59.447Z,99.99
2018-09-18T04:07:59.468Z,99.99
2018-09-18T04:08:59.499Z,99.99
2018-09-18T04:09:59.516Z,99.99
2018-09-18T04:10:59.544Z,99.99
2018-09-18T04:11:59.560Z,99.99
2018-09-18T04:12:59.582Z,99.99
2018-09-18T04:13:59.606Z,99.99
2018-09-18T04:14:59.626Z,99.99
2018-09-18T04:15:59.650Z,99.99
2018-09-18T04:16:59.672Z,99.99
2018-09-18T04:17:59.694Z,99.99
2018-09-18T04:18:59.712Z,99.77
2018-09-18T04:19:59.736Z,99.96
2018-09-18T04:20:59.758Z,99.96
2018-09-18T04:21:59.777Z,99.99
2018-09-18T04:22:59.804Z,99.99
2018-09-18T04:23:59.820Z,99.99
2018-09-18T04:24:59.848Z,99.99
2018-09-18T04:25:59.873Z,99.99
2018-09-18T04:26:59.889Z,99.99
2018-09-18T04:27:59.912Z,99.99
2018-09-18T04:28:59.936Z,99.99
2018-09-18T04:29:59.950Z,99.99
2018-09-18T04:30:59.973Z,99.87
2018-09-18T04:31:59.995Z,99.99
2018-09-18T04:33:00.025Z,99.99
2018-09-18T04:34:00.044Z,99.99
2018-09-18T04:35:00.066Z,99.99
2018-09-18T04:36:00.082Z,99.99
2018-09-18T04:37:00.110Z,99.99
2018-09-18T04:38:00.128Z,99.99
2018-09-18T04:39:00.151Z,99.99
2018-09-18T04:40:00.175Z,99.99
2018-09-18T04:41:00.197Z,99.99
2018-09-18T04:42:00.217Z,99.99
2018-09-18T04:43:00.240Z,99.99
2018-09-18T04:44:00.262Z,99.99
2018-09-18T04:45:00.282Z,99.99
2018-09-18T04:46:00.369Z,99.99
2018-09-18T04:47:00.324Z,99.99
2018-09-18T04:48:00.348Z,99.99
2018-09-18T04:49:00.368Z,99.99
2018-09-18T04:50:00.392Z,99.99
2018-09-18T04:51:00.410Z,99.99
2018-09-18T04:52:00.436Z,99.99
2018-09-18T04:53:00.460Z,99.99
2018-09-18T04:54:00.479Z,99.99
2018-09-18T04:55:00.544Z,99.99
2018-09-18T04:56:00.537Z,99.99
2018-09-18T04:57:00.546Z,99.99
2018-09-18T04:58:00.570Z,99.99
2018-09-18T04:59:00.586Z,99.99
2018-09-18T05:00:00.614Z,99.99
2018-09-18T05:01:00.632Z,99.99
2018-09-18T05:02:00.701Z,99.99
2018-09-18T05:03:00.675Z,99.99
2018-09-18T05:04:00.697Z,99.99
2018-09-18T05:05:00.724Z,99.99
2018-09-18T05:06:00.742Z,99.99
2018-09-18T05:07:00.758Z,99.99
2018-09-18T05:08:00.783Z,99.99
2018-09-18T05:09:00.806Z,99.99
2018-09-18T05:10:00.828Z,99.99
2018-09-18T05:11:00.856Z,99.99
2018-09-18T05:12:00.876Z,99.99
2018-09-18T05:13:00.895Z,99.99
2018-09-18T05:14:00.991Z,99.99
2018-09-18T05:15:00.936Z,99.99
2018-09-18T05:16:00.955Z,99.99
2018-09-18T05:17:00.980Z,99.99
2018-09-18T05:18:01.004Z,99.99
2018-09-18T05:19:01.020Z,99.99
2018-09-18T05:20:01.044Z,99.99
2018-09-18T05:21:01.066Z,99.99
2018-09-18T05:22:01.087Z,99.99
2018-09-18T05:23:01.110Z,99.99
2018-09-18T05:24:01.132Z,99.99
2018-09-18T05:25:01.154Z,99.99
2018-09-18T05:26:01.170Z,99.99
2018-09-18T05:27:01.196Z,99.99
2018-09-18T05:28:01.222Z,99.99
2018-09-18T05:29:01.242Z,99.99
2018-09-18T05:30:01.260Z,99.99
2018-09-18T05:31:01.280Z,99.99
2018-09-18T05:32:01.308Z,99.99
2018-09-18T05:33:01.326Z,99.99
2018-09-18T05:34:01.351Z,99.99
2018-09-18T05:35:01.370Z,99.99
2018-09-18T05:36:01.423Z,99.77
2018-09-18T05:37:01.420Z,98.71
2018-09-18T05:38:01.433Z,98.33
2018-09-18T05:39:01.460Z,99.48
2018-09-18T05:40:01.476Z,99.63
2018-09-18T05:41:01.504Z,99.99
2018-09-18T05:42:01.607Z,99.99
2018-09-18T05:43:01.544Z,99.43
2018-09-18T05:44:01.564Z,99.99
2018-09-18T05:45:01.582Z,99.99
2018-09-18T05:46:01.610Z,99.53
2018-09-18T05:47:01.633Z,99.99
2018-09-18T05:48:01.688Z,99.99
2018-09-18T05:49:01.676Z,99.99
2018-09-18T05:50:01.702Z,99.72
2018-09-18T05:51:01.721Z,99.43
2018-09-18T05:52:01.739Z,99.91
2018-09-18T05:53:01.761Z,99.05
2018-09-18T05:54:01.784Z,99.15
2018-09-18T05:55:01.812Z,99.63
2018-09-18T05:56:01.863Z,99.43
2018-09-18T05:57:01.858Z,99.91
2018-09-18T05:58:01.874Z,98.47
2018-09-18T05:59:01.895Z,98.47
2018-09-18T06:00:01.916Z,97.61
2018-09-18T06:01:01.936Z,98.10
2018-09-18T06:02:01.992Z,97.80
2018-09-18T06:03:01.989Z,97.33
2018-09-18T06:04:02.003Z,98.28
2018-09-18T06:05:02.024Z,97.52
2018-09-18T06:06:02.056Z,96.66
2018-09-18T06:07:02.073Z,95.22
2018-09-18T06:08:02.093Z,96.66
2018-09-18T06:09:02.113Z,97.33
2018-09-18T06:10:02.132Z,97.33
2018-09-18T06:11:02.160Z,98.19
2018-09-18T06:12:02.183Z,97.23
2018-09-18T06:13:02.209Z,97.23
2018-09-18T06:14:02.219Z,97.61
2018-09-18T06:15:02.250Z,97.23
2018-09-18T06:16:02.273Z,96.75
2018-09-18T06:17:02.295Z,95.60
2018-09-18T06:18:02.312Z,94.69
2018-09-18T06:19:02.392Z,95.46
2018-09-18T06:20:02.358Z,95.65
2018-09-18T06:21:02.380Z,95.36
2018-09-18T06:22:02.399Z,94.89
2018-09-18T06:23:02.431Z,94.45
2018-09-18T06:24:02.449Z,94.69
2018-09-18T06:25:02.468Z,93.83
2018-09-18T06:26:02.487Z,93.83
2018-09-18T06:27:02.509Z,93.26
2018-09-18T06:28:02.533Z,92.68
2018-09-18T06:29:02.573Z,92.77
2018-09-18T06:30:02.577Z,91.72
2018-09-18T06:31:02.600Z,92.30
2018-09-18T06:32:02.627Z,92.39
2018-09-18T06:33:02.653Z,93.54
2018-09-18T06:34:02.665Z,93.63
2018-09-18T06:35:02.689Z,92.77
2018-09-18T06:36:02.705Z,92.30
2018-09-18T06:37:02.904Z,92.39
2018-09-18T06:38:02.755Z,92.10
2018-09-18T06:39:02.781Z,91.05
2018-09-18T06:40:02.797Z,90.95
2018-09-18T06:41:02.819Z,90.23
2018-09-18T06:42:02.847Z,89.71
2018-09-18T06:43:02.875Z,90.23
2018-09-18T06:44:02.887Z,89.37
2018-09-18T06:45:02.911Z,90.19
2018-09-18T06:46:02.929Z,90.42
2018-09-18T06:47:02.958Z,90.81
2018-09-18T06:48:02.983Z,90.23
2018-09-18T06:49:02.995Z,89.47
2018-09-18T06:50:03.025Z,89.27
2018-09-18T06:51:03.047Z,89.94
2018-09-18T06:52:03.066Z,89.47
2018-09-18T06:53:03.091Z,89.56
2018-09-18T06:54:03.115Z,89.47
2018-09-18T06:55:03.139Z,89.65
2018-09-18T06:56:03.156Z,89.18
2018-09-18T06:57:03.181Z,89.08
2018-09-18T06:58:03.201Z,88.51
2018-09-18T06:59:03.227Z,87.74
2018-09-18T07:00:03.249Z,88.41
2018-09-18T07:01:03.277Z,88.70
2018-09-18T07:02:03.295Z,87.84
2018-09-18T07:03:03.314Z,87.64
2018-09-18T07:04:03.345Z,87.45
2018-09-18T07:05:03.359Z,88.07
2018-09-18T07:06:03.378Z,87.45
2018-09-18T07:07:03.403Z,88.07
2018-09-18T07:08:03.425Z,87.40
2018-09-18T07:09:03.450Z,86.82
2018-09-18T07:10:03.472Z,86.54
2018-09-18T07:11:03.493Z,86.54
2018-09-18T07:12:03.521Z,86.54
2018-09-18T07:13:03.544Z,86.54
2018-09-18T07:14:03.563Z,85.77
2018-09-18T07:15:03.583Z,86.05
2018-09-18T07:16:03.614Z,86.44
2018-09-18T07:17:03.633Z,85.86
2018-09-18T07:18:03.704Z,85.77
2018-09-18T07:19:03.677Z,85.67
2018-09-18T07:20:03.707Z,85.86
2018-09-18T07:21:03.723Z,85.91
2018-09-18T07:22:03.743Z,85.24
2018-09-18T07:23:03.771Z,85.62
2018-09-18T07:24:03.787Z,85.52
2018-09-18T07:25:03.815Z,85.24
2018-09-18T07:26:03.833Z,85.04
2018-09-18T07:27:03.857Z,84.47
2018-09-18T07:28:03.886Z,84.66
2018-09-18T07:29:03.907Z,84.18
2018-09-18T07:30:03.925Z,84.66
2018-09-18T07:31:03.947Z,83.60
2018-09-18T07:32:03.975Z,83.98
2018-09-18T07:33:03.999Z,83.80
2018-09-18T07:34:04.025Z,84.85
2018-09-18T07:35:04.044Z,84.37
2018-09-18T07:36:04.090Z,83.60
2018-09-18T07:37:04.089Z,83.80
2018-09-18T07:38:04.140Z,83.80
2018-09-18T07:39:04.126Z,83.60
2018-09-18T07:40:04.158Z,83.60
2018-09-18T07:41:04.224Z,84.08
2018-09-18T07:42:04.203Z,83.22
2018-09-18T07:43:04.225Z,83.64
2018-09-18T07:44:04.251Z,83.45
2018-09-18T07:45:04.276Z,83.03
2018-09-18T07:46:04.293Z,83.03
2018-09-18T07:47:04.320Z,83.16
2018-09-18T07:48:04.341Z,83.36
2018-09-18T07:49:04.366Z,82.78
2018-09-18T07:50:04.384Z,82.78
2018-09-18T07:51:04.411Z,82.68
2018-09-18T07:52:04.459Z,82.78
2018-09-18T07:53:04.455Z,82.59
2018-09-18T07:54:04.487Z,82.68
2018-09-18T07:55:04.505Z,82.59
2018-09-18T07:56:04.524Z,82.78
2018-09-18T07:57:04.552Z,82.78
2018-09-18T07:58:04.575Z,82.30
2018-09-18T07:59:04.600Z,82.15
2018-09-18T08:00:04.623Z,82.53
2018-09-18T08:01:04.644Z,82.15
2018-09-18T08:02:04.663Z,82.92
2018-09-18T08:03:04.700Z,82.53
2018-09-18T08:04:04.715Z,82.63
2018-09-18T08:05:04.736Z,82.34
2018-09-18T08:06:04.762Z,82.15
2018-09-18T08:07:04.784Z,81.96
2018-09-18T08:08:04.809Z,83.30
2018-09-18T08:09:04.834Z,82.73
2018-09-18T08:10:04.855Z,82.53
2018-09-18T08:11:04.884Z,82.86
2018-09-18T08:12:04.903Z,81.90
2018-09-18T08:13:04.940Z,81.81
2018-09-18T08:14:04.945Z,82.48
2018-09-18T08:15:04.972Z,82.38
2018-09-18T08:16:04.990Z,81.99
2018-09-18T08:17:05.022Z,82.19
2018-09-18T08:18:05.042Z,81.71
2018-09-18T08:19:05.308Z,81.71
2018-09-18T08:20:05.090Z,82.09
2018-09-18T08:21:05.114Z,82.38
2018-09-18T08:22:05.189Z,81.52
2018-09-18T08:23:05.157Z,81.42
2018-09-18T08:24:05.192Z,81.07
2018-09-18T08:25:05.212Z,81.46
2018-09-18T08:26:05.230Z,81.56
2018-09-18T08:27:05.252Z,81.07
2018-09-18T08:28:05.292Z,80.98
2018-09-18T08:29:05.302Z,81.07
2018-09-18T08:30:05.325Z,81.17
2018-09-18T08:31:05.346Z,80.60
2018-09-18T08:32:05.371Z,80.69
2018-09-18T08:33:05.492Z,80.60
2018-09-18T08:34:05.429Z,80.50
2018-09-18T08:35:05.453Z,80.98
2018-09-18T08:36:05.473Z,80.69
2018-09-18T08:37:05.491Z,79.77
2018-09-18T08:38:05.518Z,80.44
2018-09-18T08:39:05.540Z,80.73
2018-09-18T08:40:05.733Z,79.96
2018-09-18T08:41:05.594Z,80.25
2018-09-18T08:42:05.634Z,79.96
2018-09-18T08:43:05.686Z,80.63
2018-09-18T08:44:05.692Z,80.63
2018-09-18T08:45:05.708Z,80.35
2018-09-18T08:46:05.708Z,80.06
2018-09-18T08:47:05.733Z,80.25
2018-09-18T08:48:05.755Z,80.25
2018-09-18T08:49:06.791Z,80.54
2018-09-18T08:50:05.803Z,80.10
2018-09-18T08:51:05.828Z,79.33
2018-09-18T08:52:06.000Z,80.00
2018-09-18T08:53:05.886Z,79.52
2018-09-18T08:54:05.900Z,79.03
2018-09-18T08:55:05.920Z,78.94
2018-09-18T08:56:05.957Z,78.56
2018-09-18T08:57:05.998Z,78.85
2018-09-18T08:58:05.995Z,78.40
2018-09-18T08:59:06.039Z,78.69
2018-09-18T09:00:06.047Z,77.34
2018-09-18T09:01:06.067Z,77.63
2018-09-18T09:02:06.141Z,77.44
2018-09-18T09:03:06.174Z,77.44
2018-09-18T09:04:06.186Z,77.25
2018-09-18T09:05:06.164Z,76.48
2018-09-18T09:06:06.263Z,75.93
2018-09-18T09:07:06.235Z,76.23
2018-09-18T09:08:06.404Z,76.13
2018-09-18T09:09:06.292Z,76.23
2018-09-18T09:10:06.302Z,75.45
2018-09-18T09:11:06.323Z,74.88
2018-09-18T09:12:06.365Z,74.58
2018-09-18T09:13:06.368Z,74.01
2018-09-18T09:14:06.393Z,73.37
2018-09-18T09:15:06.470Z,73.66
2018-09-18T09:16:06.439Z,73.08
2018-09-18T09:17:06.460Z,72.02
2018-09-18T09:18:06.618Z,71.92
2018-09-18T09:19:06.521Z,71.44
2018-09-18T09:20:06.546Z,72.02
2018-09-18T09:21:06.649Z,71.64
2018-09-18T09:22:06.684Z,71.73
2018-09-18T09:23:06.726Z,72.31
2018-09-18T09:24:06.656Z,72.06
2018-09-18T09:25:06.655Z,71.28
2018-09-18T09:26:06.687Z,71.77
2018-09-18T09:27:06.709Z,71.09
2018-09-18T09:28:06.752Z,71.19
2018-09-18T09:29:06.756Z,71.19
2018-09-18T09:30:06.893Z,70.32
2018-09-18T09:31:06.800Z,69.45
2018-09-18T09:32:06.894Z,69.00
2018-09-18T09:33:06.869Z,69.10
2018-09-18T09:34:06.888Z,69.00
2018-09-18T09:35:06.928Z,68.81
2018-09-18T09:36:06.929Z,68.62
2018-09-18T09:37:07.051Z,68.81
2018-09-18T09:38:06.979Z,68.81
2018-09-18T09:39:06.999Z,68.23
2018-09-18T09:40:07.023Z,67.65
2018-09-18T09:41:07.056Z,67.40
2018-09-18T09:42:07.078Z,67.49
2018-09-18T09:43:07.109Z,67.30
2018-09-18T09:44:07.150Z,67.59
2018-09-18T09:45:07.277Z,66.72
2018-09-18T09:46:07.182Z,66.33
2018-09-18T09:47:07.209Z,66.33
2018-09-18T09:48:07.229Z,66.53
2018-09-18T09:49:07.252Z,66.72
2018-09-18T09:50:07.276Z,66.33
2018-09-18T09:51:07.338Z,66.33
2018-09-18T09:52:07.330Z,66.63
2018-09-18T09:53:07.359Z,66.33
2018-09-18T09:54:07.374Z,66.24
2018-09-18T09:55:07.403Z,66.46
2018-09-18T09:56:07.432Z,65.98
2018-09-18T09:57:07.459Z,65.88
2018-09-18T09:58:07.484Z,65.78
2018-09-18T09:59:07.501Z,65.78
2018-09-18T10:00:07.531Z,65.20
2018-09-18T10:01:07.559Z,65.30
2018-09-18T10:02:07.578Z,65.11
2018-09-18T10:03:07.611Z,65.01
2018-09-18T10:04:07.632Z,64.76
2018-09-18T10:05:07.663Z,64.76
2018-09-18T10:06:07.677Z,64.56
2018-09-18T10:07:07.711Z,64.27
2018-09-18T10:08:07.736Z,63.98
2018-09-18T10:09:07.758Z,64.18
2018-09-18T10:10:07.785Z,64.01
2018-09-18T10:11:07.818Z,63.63
2018-09-18T10:12:07.838Z,63.63
2018-09-18T10:13:07.873Z,63.43
2018-09-18T10:14:07.881Z,63.14
2018-09-18T10:15:07.924Z,63.34
2018-09-18T10:16:07.943Z,63.43
2018-09-18T10:17:07.964Z,63.05
2018-09-18T10:18:08.073Z,62.85
2018-09-18T10:19:08.029Z,62.69
2018-09-18T10:20:08.046Z,63.08
2018-09-18T10:21:08.072Z,62.59
2018-09-18T10:22:08.097Z,62.50
2018-09-18T10:23:08.149Z,62.11
2018-09-18T10:24:08.171Z,62.40
2018-09-18T10:25:08.258Z,61.95
2018-09-18T10:26:08.298Z,62.30
2018-09-18T10:27:08.347Z,61.15
2018-09-18T10:28:08.264Z,61.56
2018-09-18T10:29:08.272Z,61.08
2018-09-18T10:30:08.305Z,60.98
2018-09-18T10:31:08.326Z,60.50
2018-09-18T10:32:08.371Z,60.50
2018-09-18T10:33:08.393Z,60.04
2018-09-18T10:34:08.430Z,59.17
2018-09-18T10:35:08.432Z,59.46
2018-09-18T10:36:08.465Z,59.07
2018-09-18T10:37:08.505Z,58.42
2018-09-18T10:38:08.517Z,57.94
2018-09-18T10:39:08.559Z,57.29
2018-09-18T10:40:08.577Z,57.00
2018-09-18T10:41:08.629Z,56.74
2018-09-18T10:42:08.628Z,56.64
2018-09-18T10:43:08.637Z,55.67
2018-09-18T10:44:08.687Z,54.70
2018-09-18T10:45:08.703Z,54.24
2018-09-18T10:46:08.721Z,54.24
2018-09-18T10:47:08.751Z,53.69
2018-09-18T10:48:08.773Z,53.30
2018-09-18T10:49:08.800Z,52.81
2018-09-18T10:50:08.829Z,52.84
2018-09-18T10:51:08.855Z,52.55
2018-09-18T10:52:08.884Z,51.99
2018-09-18T10:53:08.913Z,50.92
2018-09-18T10:54:08.945Z,49.78
2018-09-18T10:55:08.979Z,48.75
2018-09-18T10:56:09.000Z,46.41
2018-09-18T10:57:09.039Z,44.21
2018-09-18T10:58:09.070Z,41.66
2018-09-18T10:59:09.097Z,40.06
2018-09-18T11:00:09.127Z,37.96
2018-09-18T11:01:09.164Z,36.03
2018-09-18T11:02:09.343Z,34.11
2018-09-18T11:03:09.227Z,33.15
2018-09-18T11:04:09.256Z,32.67
2018-09-18T11:05:09.320Z,32.28
2018-09-18T11:06:11.981Z,31.92
2018-09-18T11:07:09.458Z,31.14
2018-09-18T11:08:09.905Z,30.26
2018-09-18T11:09:10.039Z,29.89
2018-09-18T11:10:09.482Z,29.41
2018-09-18T11:11:09.516Z,29.02
2018-09-18T11:12:13.595Z,29.02
2018-09-18T11:13:54.784Z,29.39
2018-09-18T11:14:56.040Z,29.41
2018-09-18T11:15:52.310Z,29.02
2018-09-18T11:16:52.228Z,28.75
2018-09-18T11:17:52.280Z,27.97
2018-09-18T11:18:52.365Z,27.97
2018-09-18T11:19:52.447Z,27.77
2018-09-18T11:20:52.412Z,27.69
2018-09-18T11:21:52.437Z,26.90
2018-09-18T11:22:52.452Z,26.73
2018-09-18T11:23:52.591Z,26.33
2018-09-18T11:24:52.614Z,25.93
2018-09-18T11:25:52.634Z,26.13
2018-09-18T11:26:52.633Z,26.51
2018-09-18T11:27:52.630Z,26.23
2018-09-18T11:28:52.667Z,25.65
2018-09-18T11:29:52.708Z,25.33
2018-09-18T11:30:52.755Z,25.37
2018-09-18T11:31:52.818Z,24.30
2018-09-18T11:32:52.905Z,24.31
2018-09-18T11:33:52.865Z,23.05
2018-09-18T11:34:52.899Z,23.04
2018-09-18T11:35:52.931Z,23.22
2018-09-18T11:36:52.981Z,23.69
2018-09-18T11:37:52.999Z,24.08
2018-09-18T11:38:53.040Z,23.99
2018-09-18T11:39:53.082Z,23.12
2018-09-18T11:40:53.120Z,22.83
2018-09-18T11:41:53.156Z,22.64
2018-09-18T11:47:09.286Z,22.51
2018-09-18T11:48:09.330Z,22.03
2018-09-18T11:49:09.367Z,21.84
2018-09-18T11:50:09.414Z,22.39
2018-09-18T11:51:09.445Z,23.54
2018-09-18T11:52:09.480Z,23.85
2018-09-18T11:53:09.528Z,22.81
2018-09-18T11:54:09.559Z,22.72
2018-09-18T11:55:09.600Z,22.63
2018-09-18T11:56:09.636Z,21.64
2018-09-18T11:57:10.771Z,21.84
2018-09-18T11:58:09.723Z,21.94
2018-09-18T11:59:09.756Z,21.86
2018-09-18T12:00:09.794Z,21.08
2018-09-18T12:01:09.836Z,20.49
2018-09-18T12:02:09.876Z,19.80
2018-09-18T12:03:09.975Z,19.83
2018-09-18T12:04:09.956Z,19.05
2018-09-18T12:06:10.030Z,18.71
2018-09-18T12:07:10.088Z,20.08
2018-09-18T12:08:10.520Z,20.49
2018-09-18T12:11:10.234Z,20.30
2018-09-18T12:12:10.275Z,19.89
2018-09-18T12:13:10.316Z,20.07
2018-09-18T12:14:10.361Z,19.89
2018-09-18T12:15:10.395Z,20.48
2018-09-18T12:16:10.434Z,20.78
2018-09-18T12:17:13.308Z,20.27
2018-09-18T12:20:14.246Z,18.34
2018-09-18T12:21:10.636Z,18.25
2018-09-18T12:22:10.730Z,17.67
2018-09-18T12:23:10.714Z,17.57
2018-09-18T12:24:10.753Z,17.56
2018-09-18T12:25:10.798Z,17.86
2018-09-18T12:26:10.849Z,17.38
2018-09-18T12:27:10.874Z,16.79
2018-09-18T12:28:10.928Z,16.39
2018-09-18T12:29:10.969Z,15.70
2018-09-18T12:30:11.000Z,16.01
2018-09-18T12:31:11.652Z,15.91
2018-09-18T12:32:11.282Z,16.84
2018-09-18T12:33:11.124Z,18.18
2018-09-18T12:34:11.162Z,18.96
2018-09-18T12:35:11.293Z,18.90
2018-09-18T12:36:11.248Z,17.92
2018-09-18T12:37:11.289Z,18.69
2018-09-18T12:38:11.330Z,18.02
2018-09-18T12:39:11.370Z,18.10
2018-09-18T12:40:11.418Z,17.82
2018-09-18T12:41:11.500Z,18.02
2018-09-18T12:42:11.694Z,17.93
2018-09-18T12:43:11.540Z,17.94
2018-09-18T12:44:11.583Z,17.83
2018-09-18T12:45:11.624Z,17.44
2018-09-18T12:46:11.669Z,17.44
2018-09-18T12:47:11.704Z,17.05
2018-09-18T12:48:11.758Z,17.90
2018-09-18T12:49:11.825Z,18.51
2018-09-18T12:50:12.121Z,18.88
2018-09-18T12:51:11.874Z,19.08
2018-09-18T12:52:11.921Z,19.18
2018-09-18T12:53:11.955Z,18.60
2018-09-18T12:54:12.097Z,17.94
2018-09-18T12:55:12.042Z,17.53
2018-09-18T12:56:12.172Z,18.13
2018-09-18T12:57:12.337Z,17.94
2018-09-18T12:58:12.173Z,17.62
2018-09-18T12:59:12.626Z,18.10
2018-09-18T13:00:12.286Z,18.11
2018-09-18T13:01:12.287Z,17.80
2018-09-18T13:02:12.392Z,18.09
2018-09-18T13:03:12.378Z,18.02